sensor_id;sensor_type;location;lat;lon;timestamp;P1;durP1;ratioP1;P2;durP2;ratioP2
32228;SDS011;18717;48.034;11.186;2022-08-21T00:00:34;10.70;;;10.15;;
32228;SDS011;18717;48.034;11.186;2022-08-21T00:03:09;10.75;;;10.35;;
32228;SDS011;18717;48.034;11.186;2022-08-21T00:05:40;11.05;;;10.10;;
32228;SDS011;18717;48.034;11.186;2022-08-21T00:08:10;10.77;;;10.10;;
32228;SDS011;18717;48.034;11.186;2022-08-21T00:10:38;10.52;;;9.70;;
32228;SDS011;18717;48.034;11.186;2022-08-21T00:13:19;10.43;;;9.65;;
32228;SDS011;18717;48.034;11.186;2022-08-21T00:15:48;9.93;;;9.52;;
32228;SDS011;18717;48.034;11.186;2022-08-21T00:18:17;10.55;;;10.05;;
32228;SDS011;18717;48.034;11.186;2022-08-21T00:20:45;10.27;;;9.88;;
32228;SDS011;18717;48.034;11.186;2022-08-21T00:23:14;10.05;;;9.55;;
32228;SDS011;18717;48.034;11.186;2022-08-21T00:25:42;11.18;;;10.55;;
32228;SDS011;18717;48.034;11.186;2022-08-21T00:28:12;11.23;;;10.73;;
32228;SDS011;18717;48.034;11.186;2022-08-21T00:30:42;10.60;;;10.10;;
32228;SDS011;18717;48.034;11.186;2022-08-21T00:33:11;10.50;;;10.00;;
32228;SDS011;18717;48.034;11.186;2022-08-21T00:35:40;10.48;;;9.80;;
32228;SDS011;18717;48.034;11.186;2022-08-21T00:38:09;10.88;;;10.32;;
32228;SDS011;18717;48.034;11.186;2022-08-21T00:40:39;10.27;;;9.70;;
32228;SDS011;18717;48.034;11.186;2022-08-21T00:43:10;10.90;;;9.98;;
32228;SDS011;18717;48.034;11.186;2022-08-21T00:45:38;10.95;;;10.45;;
32228;SDS011;18717;48.034;11.186;2022-08-21T00:48:08;9.93;;;9.45;;
32228;SDS011;18717;48.034;11.186;2022-08-21T00:50:38;10.02;;;9.52;;
32228;SDS011;18717;48.034;11.186;2022-08-21T00:53:08;9.93;;;9.52;;
32228;SDS011;18717;48.034;11.186;2022-08-21T00:55:38;11.00;;;10.27;;
32228;SDS011;18717;48.034;11.186;2022-08-21T00:58:06;11.02;;;10.32;;
32228;SDS011;18717;48.034;11.186;2022-08-21T01:00:37;10.90;;;10.30;;
32228;SDS011;18717;48.034;11.186;2022-08-21T01:03:09;9.80;;;9.40;;
32228;SDS011;18717;48.034;11.186;2022-08-21T01:05:40;10.63;;;10.02;;
32228;SDS011;18717;48.034;11.186;2022-08-21T01:08:08;11.48;;;10.77;;
32228;SDS011;18717;48.034;11.186;2022-08-21T01:10:37;11.10;;;10.40;;
32228;SDS011;18717;48.034;11.186;2022-08-21T01:13:05;10.23;;;9.73;;
32228;SDS011;18717;48.034;11.186;2022-08-21T01:15:36;10.10;;;9.60;;
32228;SDS011;18717;48.034;11.186;2022-08-21T01:18:09;10.20;;;9.70;;
32228;SDS011;18717;48.034;11.186;2022-08-21T01:20:38;10.55;;;9.93;;
32228;SDS011;18717;48.034;11.186;2022-08-21T01:23:12;10.45;;;9.82;;
32228;SDS011;18717;48.034;11.186;2022-08-21T01:25:40;10.88;;;10.05;;
32228;SDS011;18717;48.034;11.186;2022-08-21T01:28:09;10.35;;;9.38;;
32228;SDS011;18717;48.034;11.186;2022-08-21T01:30:40;11.00;;;10.40;;
32228;SDS011;18717;48.034;11.186;2022-08-21T01:33:09;10.48;;;9.77;;
32228;SDS011;18717;48.034;11.186;2022-08-21T01:35:38;10.32;;;9.93;;
32228;SDS011;18717;48.034;11.186;2022-08-21T01:38:06;10.20;;;9.55;;
32228;SDS011;18717;48.034;11.186;2022-08-21T01:40:36;10.48;;;9.75;;
32228;SDS011;18717;48.034;11.186;2022-08-21T01:43:04;11.23;;;10.43;;
32228;SDS011;18717;48.034;11.186;2022-08-21T01:45:32;10.18;;;9.77;;
32228;SDS011;18717;48.034;11.186;2022-08-21T01:48:00;10.57;;;9.88;;
32228;SDS011;18717;48.034;11.186;2022-08-21T01:50:28;10.82;;;10.32;;
32228;SDS011;18717;48.034;11.186;2022-08-21T01:52:56;13.07;;;10.23;;
32228;SDS011;18717;48.034;11.186;2022-08-21T01:55:25;10.98;;;10.38;;
32228;SDS011;18717;48.034;11.186;2022-08-21T01:57:54;11.05;;;10.18;;
32228;SDS011;18717;48.034;11.186;2022-08-21T02:00:22;10.80;;;10.23;;
32228;SDS011;18717;48.034;11.186;2022-08-21T02:02:50;10.52;;;9.85;;
32228;SDS011;18717;48.034;11.186;2022-08-21T02:05:19;10.40;;;9.80;;
32228;SDS011;18717;48.034;11.186;2022-08-21T02:07:52;10.27;;;9.75;;
32228;SDS011;18717;48.034;11.186;2022-08-21T02:10:22;10.05;;;9.63;;
32228;SDS011;18717;48.034;11.186;2022-08-21T02:12:52;10.75;;;10.10;;
32228;SDS011;18717;48.034;11.186;2022-08-21T02:15:23;11.95;;;10.90;;
32228;SDS011;18717;48.034;11.186;2022-08-21T02:17:52;10.13;;;9.63;;
32228;SDS011;18717;48.034;11.186;2022-08-21T02:20:22;10.98;;;10.25;;
32228;SDS011;18717;48.034;11.186;2022-08-21T02:22:52;10.82;;;10.23;;
32228;SDS011;18717;48.034;11.186;2022-08-21T02:25:21;10.40;;;9.75;;
32228;SDS011;18717;48.034;11.186;2022-08-21T02:27:50;10.25;;;9.75;;
32228;SDS011;18717;48.034;11.186;2022-08-21T02:30:20;10.52;;;9.98;;
32228;SDS011;18717;48.034;11.186;2022-08-21T02:32:49;11.07;;;10.48;;
32228;SDS011;18717;48.034;11.186;2022-08-21T02:35:17;10.55;;;10.13;;
32228;SDS011;18717;48.034;11.186;2022-08-21T02:37:47;11.70;;;11.10;;
32228;SDS011;18717;48.034;11.186;2022-08-21T02:40:18;10.27;;;9.77;;
32228;SDS011;18717;48.034;11.186;2022-08-21T02:42:47;10.18;;;9.68;;
32228;SDS011;18717;48.034;11.186;2022-08-21T02:45:15;10.02;;;9.60;;
32228;SDS011;18717;48.034;11.186;2022-08-21T02:47:48;10.52;;;10.02;;
32228;SDS011;18717;48.034;11.186;2022-08-21T02:50:17;11.13;;;10.63;;
32228;SDS011;18717;48.034;11.186;2022-08-21T02:52:47;10.70;;;10.20;;
32228;SDS011;18717;48.034;11.186;2022-08-21T02:55:21;10.25;;;9.75;;
32228;SDS011;18717;48.034;11.186;2022-08-21T02:57:51;11.00;;;10.18;;
32228;SDS011;18717;48.034;11.186;2022-08-21T03:00:20;10.70;;;10.20;;
32228;SDS011;18717;48.034;11.186;2022-08-21T03:02:50;10.20;;;9.80;;
32228;SDS011;18717;48.034;11.186;2022-08-21T03:05:19;10.43;;;9.95;;
32228;SDS011;18717;48.034;11.186;2022-08-21T03:07:47;11.07;;;10.13;;
32228;SDS011;18717;48.034;11.186;2022-08-21T03:10:15;10.75;;;10.10;;
32228;SDS011;18717;48.034;11.186;2022-08-21T03:12:43;10.38;;;9.70;;
32228;SDS011;18717;48.034;11.186;2022-08-21T03:15:12;11.10;;;10.45;;
32228;SDS011;18717;48.034;11.186;2022-08-21T03:17:41;10.55;;;10.05;;
32228;SDS011;18717;48.034;11.186;2022-08-21T03:20:11;10.95;;;10.45;;
32228;SDS011;18717;48.034;11.186;2022-08-21T03:22:40;10.30;;;9.80;;
32228;SDS011;18717;48.034;11.186;2022-08-21T03:25:18;11.00;;;10.48;;
32228;SDS011;18717;48.034;11.186;2022-08-21T03:28:07;10.60;;;9.95;;
32228;SDS011;18717;48.034;11.186;2022-08-21T03:30:39;10.40;;;9.80;;
32228;SDS011;18717;48.034;11.186;2022-08-21T03:33:07;10.88;;;10.38;;
32228;SDS011;18717;48.034;11.186;2022-08-21T03:35:42;10.95;;;10.25;;
32228;SDS011;18717;48.034;11.186;2022-08-21T03:38:11;10.70;;;10.20;;
32228;SDS011;18717;48.034;11.186;2022-08-21T03:40:40;11.23;;;10.48;;
32228;SDS011;18717;48.034;11.186;2022-08-21T03:43:07;11.23;;;10.63;;
32228;SDS011;18717;48.034;11.186;2022-08-21T03:45:36;13.38;;;9.93;;
32228;SDS011;18717;48.034;11.186;2022-08-21T03:48:05;11.20;;;10.60;;
32228;SDS011;18717;48.034;11.186;2022-08-21T03:50:36;10.82;;;10.23;;
32228;SDS011;18717;48.034;11.186;2022-08-21T03:53:08;11.57;;;10.57;;
32228;SDS011;18717;48.034;11.186;2022-08-21T03:55:43;10.20;;;9.60;;
32228;SDS011;18717;48.034;11.186;2022-08-21T03:58:11;10.05;;;9.65;;
32228;SDS011;18717;48.034;11.186;2022-08-21T04:00:42;11.43;;;10.48;;
32228;SDS011;18717;48.034;11.186;2022-08-21T04:03:10;10.65;;;9.95;;
32228;SDS011;18717;48.034;11.186;2022-08-21T04:05:38;10.45;;;9.95;;
32228;SDS011;18717;48.034;11.186;2022-08-21T04:08:06;9.75;;;9.32;;
32228;SDS011;18717;48.034;11.186;2022-08-21T04:10:36;10.95;;;10.45;;
32228;SDS011;18717;48.034;11.186;2022-08-21T04:13:05;10.73;;;10.18;;
32228;SDS011;18717;48.034;11.186;2022-08-21T04:15:33;10.70;;;10.20;;
32228;SDS011;18717;48.034;11.186;2022-08-21T04:18:02;10.75;;;10.15;;
32228;SDS011;18717;48.034;11.186;2022-08-21T04:20:29;10.88;;;10.25;;
32228;SDS011;18717;48.034;11.186;2022-08-21T04:22:57;10.70;;;10.00;;
32228;SDS011;18717;48.034;11.186;2022-08-21T04:25:27;11.10;;;10.30;;
32228;SDS011;18717;48.034;11.186;2022-08-21T04:27:54;10.40;;;9.90;;
32228;SDS011;18717;48.034;11.186;2022-08-21T04:30:23;10.88;;;10.18;;
32228;SDS011;18717;48.034;11.186;2022-08-21T04:32:53;10.02;;;9.43;;
32228;SDS011;18717;48.034;11.186;2022-08-21T04:35:22;10.75;;;10.23;;
32228;SDS011;18717;48.034;11.186;2022-08-21T04:37:50;11.10;;;10.38;;
32228;SDS011;18717;48.034;11.186;2022-08-21T04:40:19;10.20;;;9.73;;
32228;SDS011;18717;48.034;11.186;2022-08-21T04:42:50;10.25;;;9.75;;
32228;SDS011;18717;48.034;11.186;2022-08-21T04:45:20;10.48;;;9.95;;
32228;SDS011;18717;48.034;11.186;2022-08-21T04:47:50;10.75;;;10.15;;
32228;SDS011;18717;48.034;11.186;2022-08-21T04:50:18;10.27;;;9.77;;
32228;SDS011;18717;48.034;11.186;2022-08-21T04:52:46;10.82;;;10.23;;
32228;SDS011;18717;48.034;11.186;2022-08-21T04:55:15;10.57;;;9.88;;
32228;SDS011;18717;48.034;11.186;2022-08-21T04:57:43;10.70;;;10.00;;
32228;SDS011;18717;48.034;11.186;2022-08-21T05:00:16;10.30;;;9.80;;
32228;SDS011;18717;48.034;11.186;2022-08-21T05:02:45;10.70;;;10.10;;
32228;SDS011;18717;48.034;11.186;2022-08-21T05:05:14;10.70;;;10.10;;
32228;SDS011;18717;48.034;11.186;2022-08-21T05:07:42;9.82;;;9.38;;
32228;SDS011;18717;48.034;11.186;2022-08-21T05:10:11;10.10;;;9.48;;
32228;SDS011;18717;48.034;11.186;2022-08-21T05:12:40;10.52;;;9.73;;
32228;SDS011;18717;48.034;11.186;2022-08-21T05:15:09;10.05;;;9.55;;
32228;SDS011;18717;48.034;11.186;2022-08-21T05:17:40;10.32;;;9.82;;
32228;SDS011;18717;48.034;11.186;2022-08-21T05:20:08;10.38;;;9.88;;
32228;SDS011;18717;48.034;11.186;2022-08-21T05:22:37;11.00;;;10.07;;
32228;SDS011;18717;48.034;11.186;2022-08-21T05:25:06;10.88;;;9.95;;
32228;SDS011;18717;48.034;11.186;2022-08-21T05:27:35;10.60;;;10.10;;
32228;SDS011;18717;48.034;11.186;2022-08-21T05:30:05;10.40;;;9.88;;
32228;SDS011;18717;48.034;11.186;2022-08-21T05:32:33;10.35;;;9.75;;
32228;SDS011;18717;48.034;11.186;2022-08-21T05:35:03;11.18;;;10.30;;
32228;SDS011;18717;48.034;11.186;2022-08-21T05:37:31;11.00;;;10.25;;
32228;SDS011;18717;48.034;11.186;2022-08-21T05:40:00;10.85;;;10.15;;
32228;SDS011;18717;48.034;11.186;2022-08-21T05:42:48;10.73;;;10.13;;
32228;SDS011;18717;48.034;11.186;2022-08-21T05:48:08;10.48;;;9.98;;
32228;SDS011;18717;48.034;11.186;2022-08-21T05:50:38;11.07;;;10.45;;
32228;SDS011;18717;48.034;11.186;2022-08-21T05:53:06;10.43;;;9.93;;
32228;SDS011;18717;48.034;11.186;2022-08-21T05:55:36;10.15;;;9.65;;
32228;SDS011;18717;48.034;11.186;2022-08-21T05:58:10;10.52;;;9.85;;
32228;SDS011;18717;48.034;11.186;2022-08-21T06:00:38;10.88;;;10.10;;
32228;SDS011;18717;48.034;11.186;2022-08-21T06:03:10;11.00;;;9.90;;
32228;SDS011;18717;48.034;11.186;2022-08-21T06:05:39;11.88;;;11.02;;
32228;SDS011;18717;48.034;11.186;2022-08-21T06:08:07;10.82;;;10.05;;
32228;SDS011;18717;48.034;11.186;2022-08-21T06:10:35;11.30;;;10.50;;
32228;SDS011;18717;48.034;11.186;2022-08-21T06:13:03;11.35;;;10.07;;
32228;SDS011;18717;48.034;11.186;2022-08-21T06:15:31;10.93;;;10.25;;
32228;SDS011;18717;48.034;11.186;2022-08-21T06:17:59;11.35;;;10.68;;
32228;SDS011;18717;48.034;11.186;2022-08-21T06:20:27;11.63;;;10.93;;
32228;SDS011;18717;48.034;11.186;2022-08-21T06:22:56;11.93;;;11.15;;
32228;SDS011;18717;48.034;11.186;2022-08-21T06:25:24;11.40;;;10.85;;
32228;SDS011;18717;48.034;11.186;2022-08-21T06:27:52;12.48;;;10.55;;
32228;SDS011;18717;48.034;11.186;2022-08-21T06:30:20;11.52;;;11.00;;
32228;SDS011;18717;48.034;11.186;2022-08-21T06:32:48;11.20;;;10.50;;
32228;SDS011;18717;48.034;11.186;2022-08-21T06:35:16;11.43;;;10.82;;
32228;SDS011;18717;48.034;11.186;2022-08-21T06:37:43;11.20;;;10.30;;
32228;SDS011;18717;48.034;11.186;2022-08-21T06:40:13;11.77;;;11.18;;
32228;SDS011;18717;48.034;11.186;2022-08-21T06:42:40;11.38;;;10.88;;
32228;SDS011;18717;48.034;11.186;2022-08-21T06:45:09;12.23;;;11.52;;
32228;SDS011;18717;48.034;11.186;2022-08-21T06:47:37;12.10;;;11.25;;
32228;SDS011;18717;48.034;11.186;2022-08-21T06:50:05;12.38;;;11.68;;
32228;SDS011;18717;48.034;11.186;2022-08-21T06:52:34;11.27;;;10.63;;
32228;SDS011;18717;48.034;11.186;2022-08-21T06:55:06;12.00;;;11.23;;
32228;SDS011;18717;48.034;11.186;2022-08-21T06:57:36;12.10;;;11.23;;
32228;SDS011;18717;48.034;11.186;2022-08-21T07:00:04;10.98;;;10.27;;
32228;SDS011;18717;48.034;11.186;2022-08-21T07:02:34;12.00;;;11.50;;
32228;SDS011;18717;48.034;11.186;2022-08-21T07:05:06;11.40;;;10.70;;
32228;SDS011;18717;48.034;11.186;2022-08-21T07:07:43;12.48;;;11.85;;
32228;SDS011;18717;48.034;11.186;2022-08-21T07:10:12;12.00;;;11.40;;
32228;SDS011;18717;48.034;11.186;2022-08-21T07:12:49;12.27;;;11.60;;
32228;SDS011;18717;48.034;11.186;2022-08-21T07:15:26;12.32;;;11.55;;
32228;SDS011;18717;48.034;11.186;2022-08-21T07:17:55;12.52;;;11.30;;
32228;SDS011;18717;48.034;11.186;2022-08-21T07:20:24;12.43;;;11.52;;
32228;SDS011;18717;48.034;11.186;2022-08-21T07:22:52;11.82;;;10.98;;
32228;SDS011;18717;48.034;11.186;2022-08-21T07:25:20;11.88;;;11.15;;
32228;SDS011;18717;48.034;11.186;2022-08-21T07:27:49;12.20;;;11.50;;
32228;SDS011;18717;48.034;11.186;2022-08-21T07:30:17;11.70;;;11.10;;
32228;SDS011;18717;48.034;11.186;2022-08-21T07:32:45;12.55;;;11.77;;
32228;SDS011;18717;48.034;11.186;2022-08-21T07:35:15;12.73;;;11.95;;
32228;SDS011;18717;48.034;11.186;2022-08-21T07:37:43;12.27;;;11.40;;
32228;SDS011;18717;48.034;11.186;2022-08-21T07:40:11;12.90;;;12.20;;
32228;SDS011;18717;48.034;11.186;2022-08-21T07:42:39;11.65;;;11.13;;
32228;SDS011;18717;48.034;11.186;2022-08-21T07:45:09;12.93;;;12.07;;
32228;SDS011;18717;48.034;11.186;2022-08-21T07:47:37;13.68;;;12.57;;
32228;SDS011;18717;48.034;11.186;2022-08-21T07:50:09;13.23;;;12.32;;
32228;SDS011;18717;48.034;11.186;2022-08-21T07:52:38;12.75;;;11.93;;
32228;SDS011;18717;48.034;11.186;2022-08-21T07:55:07;12.52;;;11.82;;
32228;SDS011;18717;48.034;11.186;2022-08-21T07:57:36;12.63;;;11.93;;
32228;SDS011;18717;48.034;11.186;2022-08-21T08:00:04;13.43;;;12.63;;
32228;SDS011;18717;48.034;11.186;2022-08-21T08:02:35;13.35;;;12.65;;
32228;SDS011;18717;48.034;11.186;2022-08-21T08:05:03;13.13;;;12.43;;
32228;SDS011;18717;48.034;11.186;2022-08-21T08:07:32;13.15;;;12.45;;
32228;SDS011;18717;48.034;11.186;2022-08-21T08:10:00;13.48;;;12.77;;
32228;SDS011;18717;48.034;11.186;2022-08-21T08:12:28;13.70;;;12.65;;
32228;SDS011;18717;48.034;11.186;2022-08-21T08:14:56;13.60;;;12.77;;
32228;SDS011;18717;48.034;11.186;2022-08-21T08:17:24;14.07;;;13.05;;
32228;SDS011;18717;48.034;11.186;2022-08-21T08:19:53;13.55;;;12.38;;
32228;SDS011;18717;48.034;11.186;2022-08-21T08:22:21;12.98;;;12.18;;
32228;SDS011;18717;48.034;11.186;2022-08-21T08:24:51;13.32;;;12.40;;
32228;SDS011;18717;48.034;11.186;2022-08-21T08:27:19;13.38;;;12.57;;
32228;SDS011;18717;48.034;11.186;2022-08-21T08:29:47;14.00;;;12.98;;
32228;SDS011;18717;48.034;11.186;2022-08-21T08:32:15;14.45;;;13.50;;
32228;SDS011;18717;48.034;11.186;2022-08-21T08:34:44;13.27;;;12.68;;
32228;SDS011;18717;48.034;11.186;2022-08-21T08:37:14;13.80;;;12.98;;
32228;SDS011;18717;48.034;11.186;2022-08-21T08:39:43;12.70;;;12.00;;
32228;SDS011;18717;48.034;11.186;2022-08-21T08:42:14;14.00;;;12.98;;
32228;SDS011;18717;48.034;11.186;2022-08-21T08:44:59;14.45;;;13.65;;
32228;SDS011;18717;48.034;11.186;2022-08-21T08:47:30;14.70;;;13.70;;
32228;SDS011;18717;48.034;11.186;2022-08-21T08:50:00;15.18;;;14.18;;
32228;SDS011;18717;48.034;11.186;2022-08-21T08:55:02;14.32;;;13.32;;
32228;SDS011;18717;48.034;11.186;2022-08-21T08:57:32;14.20;;;13.30;;
32228;SDS011;18717;48.034;11.186;2022-08-21T09:00:03;14.32;;;13.48;;
32228;SDS011;18717;48.034;11.186;2022-08-21T09:02:33;13.57;;;12.88;;
32228;SDS011;18717;48.034;11.186;2022-08-21T09:05:01;14.05;;;13.15;;
32228;SDS011;18717;48.034;11.186;2022-08-21T09:07:35;15.00;;;14.05;;
32228;SDS011;18717;48.034;11.186;2022-08-21T09:10:13;16.75;;;15.57;;
32228;SDS011;18717;48.034;11.186;2022-08-21T09:12:47;14.80;;;14.00;;
32228;SDS011;18717;48.034;11.186;2022-08-21T09:15:30;15.95;;;15.05;;
32228;SDS011;18717;48.034;11.186;2022-08-21T09:18:09;16.48;;;15.43;;
32228;SDS011;18717;48.034;11.186;2022-08-21T09:20:47;16.73;;;15.73;;
32228;SDS011;18717;48.034;11.186;2022-08-21T09:23:27;16.40;;;15.40;;
32228;SDS011;18717;48.034;11.186;2022-08-21T09:26:02;17.08;;;15.82;;
32228;SDS011;18717;48.034;11.186;2022-08-21T09:28:34;16.75;;;15.65;;
32228;SDS011;18717;48.034;11.186;2022-08-21T09:31:05;14.93;;;14.02;;
32228;SDS011;18717;48.034;11.186;2022-08-21T09:33:34;15.45;;;14.55;;
32228;SDS011;18717;48.034;11.186;2022-08-21T09:36:29;16.13;;;15.15;;
32228;SDS011;18717;48.034;11.186;2022-08-21T09:39:09;16.58;;;15.38;;
32228;SDS011;18717;48.034;11.186;2022-08-21T09:42:00;15.25;;;14.35;;
32228;SDS011;18717;48.034;11.186;2022-08-21T09:44:31;15.20;;;14.30;;
32228;SDS011;18717;48.034;11.186;2022-08-21T09:47:02;15.32;;;14.35;;
32228;SDS011;18717;48.034;11.186;2022-08-21T09:49:30;15.10;;;14.23;;
32228;SDS011;18717;48.034;11.186;2022-08-21T09:52:00;15.93;;;14.63;;
32228;SDS011;18717;48.034;11.186;2022-08-21T09:54:32;15.75;;;14.85;;
32228;SDS011;18717;48.034;11.186;2022-08-21T09:57:04;16.97;;;15.87;;
32228;SDS011;18717;48.034;11.186;2022-08-21T10:00:07;15.15;;;14.25;;
32228;SDS011;18717;48.034;11.186;2022-08-21T10:02:37;15.98;;;15.07;;
32228;SDS011;18717;48.034;11.186;2022-08-21T10:05:08;15.85;;;14.95;;
32228;SDS011;18717;48.034;11.186;2022-08-21T10:07:46;15.60;;;14.45;;
32228;SDS011;18717;48.034;11.186;2022-08-21T10:10:16;14.80;;;14.00;;
32228;SDS011;18717;48.034;11.186;2022-08-21T10:12:49;15.43;;;14.55;;
32228;SDS011;18717;48.034;11.186;2022-08-21T10:15:26;14.85;;;13.98;;
32228;SDS011;18717;48.034;11.186;2022-08-21T10:17:59;14.82;;;14.02;;
32228;SDS011;18717;48.034;11.186;2022-08-21T10:20:33;13.88;;;13.10;;
32228;SDS011;18717;48.034;11.186;2022-08-21T10:23:07;16.23;;;15.32;;
32228;SDS011;18717;48.034;11.186;2022-08-21T10:28:36;14.73;;;13.85;;
32228;SDS011;18717;48.034;11.186;2022-08-21T10:31:08;15.70;;;14.88;;
32228;SDS011;18717;48.034;11.186;2022-08-21T10:33:42;17.40;;;16.17;;
32228;SDS011;18717;48.034;11.186;2022-08-21T10:36:14;15.98;;;14.80;;
32228;SDS011;18717;48.034;11.186;2022-08-21T10:38:54;15.80;;;14.70;;
32228;SDS011;18717;48.034;11.186;2022-08-21T10:41:50;15.20;;;14.32;;
32228;SDS011;18717;48.034;11.186;2022-08-21T10:44:43;14.82;;;13.93;;
32228;SDS011;18717;48.034;11.186;2022-08-21T10:47:16;15.07;;;14.18;;
32228;SDS011;18717;48.034;11.186;2022-08-21T10:49:48;15.20;;;14.40;;
32228;SDS011;18717;48.034;11.186;2022-08-21T10:52:27;15.30;;;14.50;;
32228;SDS011;18717;48.034;11.186;2022-08-21T10:55:02;15.07;;;14.27;;
32228;SDS011;18717;48.034;11.186;2022-08-21T10:57:36;14.23;;;13.32;;
32228;SDS011;18717;48.034;11.186;2022-08-21T11:00:09;14.68;;;13.88;;
32228;SDS011;18717;48.034;11.186;2022-08-21T11:02:40;15.15;;;14.38;;
32228;SDS011;18717;48.034;11.186;2022-08-21T11:05:11;15.45;;;14.52;;
32228;SDS011;18717;48.034;11.186;2022-08-21T11:07:43;14.95;;;13.98;;
32228;SDS011;18717;48.034;11.186;2022-08-21T11:10:16;15.25;;;14.45;;
32228;SDS011;18717;48.034;11.186;2022-08-21T11:12:52;15.77;;;14.73;;
32228;SDS011;18717;48.034;11.186;2022-08-21T11:15:27;14.85;;;14.05;;
32228;SDS011;18717;48.034;11.186;2022-08-21T11:18:02;14.20;;;13.50;;
32228;SDS011;18717;48.034;11.186;2022-08-21T11:20:40;14.38;;;13.65;;
32228;SDS011;18717;48.034;11.186;2022-08-21T11:23:11;14.88;;;13.90;;
32228;SDS011;18717;48.034;11.186;2022-08-21T11:25:42;14.15;;;13.45;;
32228;SDS011;18717;48.034;11.186;2022-08-21T11:28:15;15.52;;;14.52;;
32228;SDS011;18717;48.034;11.186;2022-08-21T11:30:52;14.00;;;13.15;;
32228;SDS011;18717;48.034;11.186;2022-08-21T11:33:36;14.27;;;13.45;;
32228;SDS011;18717;48.034;11.186;2022-08-21T11:36:14;14.70;;;13.73;;
32228;SDS011;18717;48.034;11.186;2022-08-21T11:38:46;14.88;;;13.98;;
32228;SDS011;18717;48.034;11.186;2022-08-21T11:41:23;14.43;;;13.52;;
32228;SDS011;18717;48.034;11.186;2022-08-21T11:43:59;14.85;;;14.05;;
32228;SDS011;18717;48.034;11.186;2022-08-21T11:46:34;14.18;;;13.35;;
32228;SDS011;18717;48.034;11.186;2022-08-21T11:51:59;14.57;;;13.63;;
32228;SDS011;18717;48.034;11.186;2022-08-21T11:54:35;14.68;;;13.43;;
32228;SDS011;18717;48.034;11.186;2022-08-21T11:57:07;14.40;;;13.60;;
32228;SDS011;18717;48.034;11.186;2022-08-21T11:59:45;14.73;;;13.98;;
32228;SDS011;18717;48.034;11.186;2022-08-21T12:02:18;15.18;;;14.23;;
32228;SDS011;18717;48.034;11.186;2022-08-21T12:04:48;15.20;;;14.10;;
32228;SDS011;18717;48.034;11.186;2022-08-21T12:07:28;14.80;;;13.88;;
32228;SDS011;18717;48.034;11.186;2022-08-21T12:09:59;15.52;;;14.65;;
32228;SDS011;18717;48.034;11.186;2022-08-21T12:12:29;14.80;;;13.82;;
32228;SDS011;18717;48.034;11.186;2022-08-21T12:17:57;14.82;;;14.02;;
32228;SDS011;18717;48.034;11.186;2022-08-21T12:20:34;14.55;;;13.77;;
32228;SDS011;18717;48.034;11.186;2022-08-21T12:23:24;14.95;;;14.05;;
32228;SDS011;18717;48.034;11.186;2022-08-21T12:26:01;14.52;;;13.73;;
32228;SDS011;18717;48.034;11.186;2022-08-21T12:28:44;15.20;;;14.43;;
32228;SDS011;18717;48.034;11.186;2022-08-21T12:31:22;14.73;;;13.93;;
32228;SDS011;18717;48.034;11.186;2022-08-21T12:33:55;15.43;;;14.40;;
32228;SDS011;18717;48.034;11.186;2022-08-21T12:36:26;14.43;;;13.73;;
32228;SDS011;18717;48.034;11.186;2022-08-21T12:39:04;15.02;;;14.02;;
32228;SDS011;18717;48.034;11.186;2022-08-21T12:41:41;15.75;;;14.60;;
32228;SDS011;18717;48.034;11.186;2022-08-21T12:44:12;14.48;;;13.60;;
32228;SDS011;18717;48.034;11.186;2022-08-21T12:46:45;15.45;;;14.43;;
32228;SDS011;18717;48.034;11.186;2022-08-21T12:49:18;15.50;;;14.60;;
32228;SDS011;18717;48.034;11.186;2022-08-21T12:51:52;14.95;;;13.98;;
32228;SDS011;18717;48.034;11.186;2022-08-21T12:54:23;15.07;;;14.35;;
32228;SDS011;18717;48.034;11.186;2022-08-21T12:56:56;15.10;;;14.27;;
32228;SDS011;18717;48.034;11.186;2022-08-21T12:59:25;15.05;;;14.20;;
32228;SDS011;18717;48.034;11.186;2022-08-21T13:01:54;15.20;;;14.38;;
32228;SDS011;18717;48.034;11.186;2022-08-21T13:04:25;14.57;;;13.57;;
32228;SDS011;18717;48.034;11.186;2022-08-21T13:06:56;14.70;;;13.82;;
32228;SDS011;18717;48.034;11.186;2022-08-21T13:09:26;15.18;;;14.07;;
32228;SDS011;18717;48.034;11.186;2022-08-21T13:11:56;15.40;;;14.50;;
32228;SDS011;18717;48.034;11.186;2022-08-21T13:14:25;14.48;;;13.73;;
32228;SDS011;18717;48.034;11.186;2022-08-21T13:16:57;14.45;;;13.45;;
32228;SDS011;18717;48.034;11.186;2022-08-21T13:19:26;14.23;;;13.43;;
32228;SDS011;18717;48.034;11.186;2022-08-21T13:21:55;15.45;;;14.65;;
32228;SDS011;18717;48.034;11.186;2022-08-21T13:24:24;14.88;;;13.65;;
32228;SDS011;18717;48.034;11.186;2022-08-21T13:27:19;14.52;;;13.52;;
32228;SDS011;18717;48.034;11.186;2022-08-21T13:29:49;14.50;;;13.50;;
32228;SDS011;18717;48.034;11.186;2022-08-21T13:32:29;13.70;;;13.00;;
32228;SDS011;18717;48.034;11.186;2022-08-21T13:34:58;14.45;;;13.63;;
32228;SDS011;18717;48.034;11.186;2022-08-21T13:37:26;15.35;;;14.32;;
32228;SDS011;18717;48.034;11.186;2022-08-21T13:39:55;14.60;;;13.90;;
32228;SDS011;18717;48.034;11.186;2022-08-21T13:42:23;15.30;;;14.35;;
32228;SDS011;18717;48.034;11.186;2022-08-21T13:44:52;14.43;;;13.60;;
32228;SDS011;18717;48.034;11.186;2022-08-21T13:47:20;14.93;;;14.02;;
32228;SDS011;18717;48.034;11.186;2022-08-21T13:49:50;14.27;;;13.43;;
32228;SDS011;18717;48.034;11.186;2022-08-21T13:52:25;14.55;;;13.75;;
32228;SDS011;18717;48.034;11.186;2022-08-21T13:54:55;14.15;;;13.35;;
32228;SDS011;18717;48.034;11.186;2022-08-21T13:57:25;15.20;;;14.40;;
32228;SDS011;18717;48.034;11.186;2022-08-21T14:00:09;14.35;;;13.45;;
32228;SDS011;18717;48.034;11.186;2022-08-21T14:02:39;13.82;;;13.13;;
32228;SDS011;18717;48.034;11.186;2022-08-21T14:05:14;14.48;;;13.57;;
32228;SDS011;18717;48.034;11.186;2022-08-21T14:07:43;13.85;;;12.73;;
32228;SDS011;18717;48.034;11.186;2022-08-21T14:10:13;14.90;;;13.95;;
32228;SDS011;18717;48.034;11.186;2022-08-21T14:12:46;13.70;;;12.80;;
32228;SDS011;18717;48.034;11.186;2022-08-21T14:15:15;15.90;;;14.63;;
32228;SDS011;18717;48.034;11.186;2022-08-21T14:17:45;15.63;;;14.65;;
32228;SDS011;18717;48.034;11.186;2022-08-21T14:20:25;13.95;;;13.13;;
32228;SDS011;18717;48.034;11.186;2022-08-21T14:22:55;14.90;;;14.00;;
32228;SDS011;18717;48.034;11.186;2022-08-21T14:25:27;15.00;;;14.20;;
32228;SDS011;18717;48.034;11.186;2022-08-21T14:27:59;14.23;;;13.32;;
32228;SDS011;18717;48.034;11.186;2022-08-21T14:30:36;14.73;;;13.93;;
32228;SDS011;18717;48.034;11.186;2022-08-21T14:33:08;14.50;;;13.40;;
32228;SDS011;18717;48.034;11.186;2022-08-21T14:38:11;14.10;;;13.27;;
32228;SDS011;18717;48.034;11.186;2022-08-21T14:40:40;12.95;;;12.25;;
32228;SDS011;18717;48.034;11.186;2022-08-21T14:43:08;13.45;;;12.73;;
32228;SDS011;18717;48.034;11.186;2022-08-21T14:45:36;14.75;;;13.75;;
32228;SDS011;18717;48.034;11.186;2022-08-21T14:48:06;13.65;;;12.95;;
32228;SDS011;18717;48.034;11.186;2022-08-21T14:50:34;14.32;;;13.52;;